Time;durP1;ratioP1;P1;durP2;ratioP2;P2;SDS_P1;SDS_P2;PMS_P1;PMS_P2;Temp;Humidity;BMP_temperature;BMP_pressure;BME280_temperature;BME280_humidity;BME280_pressure;Samples;Min_cycle;Max_cycle;Signal;HPM_P1;HPM_P2
2023/06/24 00:01:50;;;;;;;;;14.67;13.67;;;;;;;;119690;1185;24892;-64
2023/06/24 00:04:20;;;;;;;;;18.33;15.33;;;;;;;;119687;1186;25237;-64
2023/06/24 00:06:49;;;;;;;;;11.33;10.33;;;;;;;;119665;1193;25108;-64
2023/06/24 00:09:17;;;;;;;;;14.25;13.25;;;;;;;;119709;1193;25236;-63
2023/06/24 00:11:46;;;;;;;;;14.00;14.00;;;;;;;;119788;1192;25540;-63
2023/06/24 00:14:15;;;;;;;;;13.33;13.33;;;;;;;;119443;1193;25170;-63
2023/06/24 00:16:43;;;;;;;;;18.50;15.75;;;;;;;;119685;1193;25154;-64
2023/06/24 00:19:11;;;;;;;;;14.67;14.67;;;;;;;;119680;1192;25650;-63
2023/06/24 00:21:40;;;;;;;;;17.33;14.33;;;;;;;;119704;1185;24792;-64
2023/06/24 00:24:09;;;;;;;;;15.00;15.00;;;;;;;;119685;1193;25603;-64
2023/06/24 00:26:37;;;;;;;;;16.75;13.25;;;;;;;;119674;1193;24741;-63
2023/06/24 00:29:05;;;;;;;;;15.50;12.50;;;;;;;;119700;1193;25370;-63
2023/06/24 00:31:34;;;;;;;;;15.67;15.00;;;;;;;;119682;1185;24946;-63
2023/06/24 00:34:02;;;;;;;;;12.00;12.00;;;;;;;;119687;1193;25374;-63
2023/06/24 00:36:35;;;;;;;;;13.00;12.00;;;;;;;;119680;1185;25428;-63
2023/06/24 00:39:07;;;;;;;;;18.00;15.00;;;;;;;;119438;1186;25274;-64
2023/06/24 00:41:36;;;;;;;;;14.00;12.00;;;;;;;;119483;1192;24959;-63
2023/06/24 00:44:04;;;;;;;;;16.50;12.00;;;;;;;;119877;1189;24923;-63
2023/06/24 00:46:33;;;;;;;;;16.67;14.67;;;;;;;;119496;1185;25575;-64
2023/06/24 00:49:02;;;;;;;;;13.50;11.50;;;;;;;;119499;1192;25061;-63
2023/06/24 00:51:32;;;;;;;;;13.25;11.75;;;;;;;;119871;1192;25270;-63
2023/06/24 00:54:00;;;;;;;;;17.00;16.00;;;;;;;;119491;1192;25474;-63
2023/06/24 00:56:33;;;;;;;;;17.75;12.50;;;;;;;;119506;1185;25330;-63
2023/06/24 00:59:02;;;;;;;;;18.00;15.00;;;;;;;;119864;1184;24926;-63
2023/06/24 01:01:35;;;;;;;;;13.00;13.00;;;;;;;;119500;1190;24938;-63
2023/06/24 01:04:04;;;;;;;;;14.33;12.67;;;;;;;;119484;1192;25637;-63
2023/06/24 01:06:32;;;;;;;;;16.33;14.00;;;;;;;;119492;1192;25253;-63
2023/06/24 01:09:02;;;;;;;;;12.00;11.50;;;;;;;;119483;1192;24717;-63
2023/06/24 01:11:31;;;;;;;;;12.67;11.67;;;;;;;;119484;1186;25281;-63
2023/06/24 01:13:59;;;;;;;;;12.00;11.00;;;;;;;;119488;1192;25106;-63
2023/06/24 01:16:39;;;;;;;;;13.50;11.00;;;;;;;;119859;1192;24717;-63
2023/06/24 01:19:48;;;;;;;;;16.00;13.00;;;;;;;;119470;1186;25251;-63
2023/06/24 01:22:35;;;;;;;;;11.50;10.50;;;;;;;;119568;1185;25373;-64
2023/06/24 01:25:28;;;;;;;;;15.00;11.50;;;;;;;;119696;1193;25243;-64
2023/06/24 01:28:23;;;;;;;;;13.67;11.00;;;;;;;;119692;1192;25299;-64
2023/06/24 01:31:18;;;;;;;;;14.00;11.00;;;;;;;;119854;1184;24846;-64
2023/06/24 01:33:50;;;;;;;;;16.50;15.00;;;;;;;;119466;1193;25573;-64
2023/06/24 01:36:20;;;;;;;;;11.33;10.33;;;;;;;;119467;1186;24830;-65
2023/06/24 01:38:52;;;;;;;;;15.00;14.00;;;;;;;;119476;1185;24845;-65
2023/06/24 01:41:23;;;;;;;;;13.67;13.67;;;;;;;;119440;1193;24994;-65
2023/06/24 01:43:53;;;;;;;;;15.50;12.50;;;;;;;;119676;1193;25414;-65
2023/06/24 01:46:22;;;;;;;;;15.00;11.00;;;;;;;;119435;1193;25643;-65
2023/06/24 01:48:55;;;;;;;;;12.67;12.67;;;;;;;;119476;1187;25322;-65
2023/06/24 01:51:24;;;;;;;;;15.33;14.33;;;;;;;;119480;1193;24806;-65
2023/06/24 01:53:59;;;;;;;;;13.50;11.75;;;;;;;;119467;1193;25389;-65
2023/06/24 01:56:29;;;;;;;;;11.00;10.00;;;;;;;;119431;1193;25672;-64
2023/06/24 01:59:01;;;;;;;;;11.00;11.00;;;;;;;;119457;1193;25925;-64
2023/06/24 02:01:31;;;;;;;;;17.50;15.00;;;;;;;;119456;1192;25129;-64
2023/06/24 02:04:01;;;;;;;;;13.50;13.00;;;;;;;;119697;1185;25088;-64
2023/06/24 02:06:30;;;;;;;;;11.00;11.00;;;;;;;;119504;1191;25672;-65
2023/06/24 02:09:00;;;;;;;;;13.00;10.00;;;;;;;;119423;1193;25496;-64
2023/06/24 02:11:30;;;;;;;;;12.50;12.00;;;;;;;;119384;1194;25294;-64
2023/06/24 02:13:59;;;;;;;;;14.00;11.50;;;;;;;;119421;1194;24979;-64
2023/06/24 02:16:29;;;;;;;;;9.50;9.50;;;;;;;;119435;1193;24954;-65
2023/06/24 02:18:57;;;;;;;;;12.00;12.00;;;;;;;;119471;1193;25170;-65
2023/06/24 02:21:26;;;;;;;;;14.50;11.50;;;;;;;;119493;1185;25069;-65
2023/06/24 02:23:55;;;;;;;;;11.67;11.00;;;;;;;;119421;1185;25447;-65
2023/06/24 02:26:25;;;;;;;;;11.00;10.00;;;;;;;;119424;1194;25034;-65
2023/06/24 02:28:54;;;;;;;;;11.00;11.00;;;;;;;;119402;1186;25058;-64
2023/06/24 02:31:23;;;;;;;;;11.00;9.00;;;;;;;;119391;1185;24847;-67
2023/06/24 02:33:51;;;;;;;;;11.33;9.67;;;;;;;;119405;1194;25759;-65
2023/06/24 02:36:20;;;;;;;;;12.00;12.00;;;;;;;;119420;1186;25478;-65
2023/06/24 02:38:48;;;;;;;;;12.00;8.00;;;;;;;;119516;1193;24771;-65
2023/06/24 02:41:16;;;;;;;;;11.00;11.00;;;;;;;;119497;1193;24812;-64
2023/06/24 02:43:45;;;;;;;;;14.50;13.50;;;;;;;;119704;1185;24790;-65
2023/06/24 02:46:15;;;;;;;;;13.50;11.50;;;;;;;;119694;1192;25636;-65
2023/06/24 02:48:45;;;;;;;;;18.50;13.50;;;;;;;;119448;1193;25146;-65
2023/06/24 02:51:14;;;;;;;;;16.50;10.50;;;;;;;;119684;1193;24742;-65
2023/06/24 02:53:42;;;;;;;;;12.00;12.00;;;;;;;;119397;1194;24840;-65
2023/06/24 02:56:20;;;;;;;;;15.00;12.33;;;;;;;;119439;1185;25393;-64
2023/06/24 02:58:52;;;;;;;;;13.50;13.50;;;;;;;;119489;1185;25103;-65
2023/06/24 03:01:24;;;;;;;;;14.00;14.00;;;;;;;;119476;1193;25170;-65
2023/06/24 03:03:56;;;;;;;;;11.50;11.00;;;;;;;;119468;1193;25078;-65
2023/06/24 03:06:27;;;;;;;;;15.50;13.00;;;;;;;;119480;1186;24982;-64
2023/06/24 03:08:55;;;;;;;;;14.00;11.00;;;;;;;;119449;1185;24908;-65
2023/06/24 03:11:24;;;;;;;;;11.75;11.75;;;;;;;;119487;1193;25435;-64
2023/06/24 03:13:52;;;;;;;;;11.50;11.50;;;;;;;;119463;1193;25578;-64
2023/06/24 03:16:21;;;;;;;;;10.00;8.00;;;;;;;;119564;1185;25451;-64
2023/06/24 03:18:49;;;;;;;;;15.00;10.50;;;;;;;;119596;1193;24736;-64
2023/06/24 03:21:18;;;;;;;;;11.50;10.00;;;;;;;;119447;1185;24818;-65
2023/06/24 03:23:46;;;;;;;;;12.00;12.00;;;;;;;;119683;1193;25147;-64
2023/06/24 03:26:14;;;;;;;;;15.00;10.00;;;;;;;;119684;1193;25058;-64
2023/06/24 03:28:43;;;;;;;;;13.00;11.50;;;;;;;;119670;1185;25454;-64
2023/06/24 03:31:11;;;;;;;;;11.00;10.00;;;;;;;;119680;1186;24818;-64
2023/06/24 03:33:44;;;;;;;;;13.50;11.00;;;;;;;;119682;1189;25317;-64
2023/06/24 03:36:12;;;;;;;;;11.50;10.75;;;;;;;;119745;1191;25678;-64
2023/06/24 03:38:41;;;;;;;;;10.67;10.67;;;;;;;;119781;1183;25245;-65
2023/06/24 03:41:09;;;;;;;;;10.50;10.00;;;;;;;;119487;1180;25072;-65
2023/06/24 03:43:37;;;;;;;;;13.00;10.00;;;;;;;;119534;1193;25538;-64
2023/06/24 03:46:06;;;;;;;;;12.67;10.67;;;;;;;;119694;1185;24843;-64
2023/06/24 03:48:35;;;;;;;;;11.75;11.75;;;;;;;;119702;1190;24812;-64
2023/06/24 03:51:03;;;;;;;;;11.00;10.00;;;;;;;;119466;1193;25022;-65
2023/06/24 03:53:32;;;;;;;;;5.50;5.50;;;;;;;;119403;1194;25157;-65
2023/06/24 03:56:01;;;;;;;;;11.00;10.50;;;;;;;;119431;1186;24741;-65
2023/06/24 03:58:29;;;;;;;;;11.50;9.00;;;;;;;;119680;1193;25555;-65
2023/06/24 04:00:59;;;;;;;;;10.00;8.67;;;;;;;;119670;1193;25169;-65
2023/06/24 04:03:31;;;;;;;;;14.00;10.67;;;;;;;;119453;1193;26818;-64
2023/06/24 04:06:01;;;;;;;;;15.00;12.00;;;;;;;;119697;1193;25475;-65
2023/06/24 04:08:30;;;;;;;;;12.50;12.25;;;;;;;;119713;1185;25211;-64
2023/06/24 04:11:03;;;;;;;;;11.00;11.00;;;;;;;;119481;1192;24886;-64
2023/06/24 04:13:31;;;;;;;;;12.50;12.50;;;;;;;;119710;1192;25568;-65
2023/06/24 04:16:02;;;;;;;;;14.50;12.25;;;;;;;;119793;1192;24936;-65
2023/06/24 04:18:31;;;;;;;;;11.50;10.00;;;;;;;;119446;1193;25309;-65
2023/06/24 04:20:59;;;;;;;;;9.75;9.75;;;;;;;;119784;1192;25276;-64
2023/06/24 04:23:27;;;;;;;;;11.67;10.67;;;;;;;;119500;1192;25207;-64
2023/06/24 04:25:56;;;;;;;;;13.00;11.50;;;;;;;;119869;1192;25013;-64
2023/06/24 04:28:24;;;;;;;;;13.00;7.33;;;;;;;;119482;1185;25149;-64
2023/06/24 04:30:54;;;;;;;;;12.50;11.50;;;;;;;;119804;1192;25483;-65
2023/06/24 04:33:24;;;;;;;;;15.00;12.50;;;;;;;;119686;1192;25002;-64
2023/06/24 04:35:52;;;;;;;;;10.67;9.67;;;;;;;;119702;1193;25073;-64
2023/06/24 04:38:23;;;;;;;;;11.00;11.00;;;;;;;;119680;1192;25547;-64
2023/06/24 04:40:51;;;;;;;;;14.00;14.00;;;;;;;;119705;1185;24723;-65
2023/06/24 04:43:20;;;;;;;;;12.50;11.00;;;;;;;;119702;1193;25728;-65
2023/06/24 04:45:49;;;;;;;;;9.00;9.00;;;;;;;;119480;1185;25208;-64
2023/06/24 04:48:17;;;;;;;;;12.00;11.00;;;;;;;;119822;1192;25320;-63
2023/06/24 04:50:46;;;;;;;;;13.67;11.00;;;;;;;;119840;1192;24758;-63
2023/06/24 04:53:14;;;;;;;;;12.00;12.00;;;;;;;;119702;1185;25062;-63
2023/06/24 04:55:42;;;;;;;;;11.00;10.00;;;;;;;;119753;1192;25571;-63
2023/06/24 04:58:11;;;;;;;;;11.00;11.00;;;;;;;;119877;1184;24952;-63
2023/06/24 05:00:39;;;;;;;;;14.50;10.50;;;;;;;;119860;1184;25656;-63
2023/06/24 05:03:07;;;;;;;;;10.00;7.25;;;;;;;;119758;1192;25369;-63
2023/06/24 05:05:36;;;;;;;;;16.00;14.33;;;;;;;;119764;1192;24961;-63
2023/06/24 05:08:05;;;;;;;;;13.00;12.00;;;;;;;;119888;1192;25124;-63
2023/06/24 05:10:33;;;;;;;;;16.33;15.00;;;;;;;;119495;1185;24896;-63
2023/06/24 05:13:01;;;;;;;;;12.33;12.33;;;;;;;;119810;1192;25656;-64
2023/06/24 05:15:30;;;;;;;;;15.67;14.33;;;;;;;;119490;1193;24789;-63
2023/06/24 05:17:58;;;;;;;;;18.75;13.50;;;;;;;;119886;1184;25271;-64
2023/06/24 05:20:26;;;;;;;;;15.67;13.67;;;;;;;;119420;1193;25145;-63
2023/06/24 05:22:55;;;;;;;;;12.00;11.00;;;;;;;;119681;1193;25231;-64
2023/06/24 05:25:23;;;;;;;;;11.50;11.00;;;;;;;;119713;1185;26439;-63
2023/06/24 05:27:51;;;;;;;;;12.00;10.50;;;;;;;;119660;1193;25401;-64
2023/06/24 05:30:20;;;;;;;;;11.00;11.00;;;;;;;;119673;1193;25396;-64
2023/06/24 05:32:48;;;;;;;;;13.50;10.50;;;;;;;;119684;1186;25276;-64
2023/06/24 05:35:17;;;;;;;;;10.00;10.00;;;;;;;;119673;1193;25032;-64
2023/06/24 05:37:45;;;;;;;;;14.50;10.50;;;;;;;;119463;1185;24895;-64
2023/06/24 05:40:13;;;;;;;;;11.00;10.50;;;;;;;;119831;1192;24812;-65
2023/06/24 05:42:42;;;;;;;;;13.50;10.25;;;;;;;;119877;1192;24969;-64
2023/06/24 05:45:10;;;;;;;;;13.00;8.50;;;;;;;;119487;1185;24721;-64
2023/06/24 05:47:38;;;;;;;;;13.67;13.67;;;;;;;;119887;1183;25582;-64
2023/06/24 05:50:07;;;;;;;;;15.00;10.00;;;;;;;;119864;1184;25647;-64
2023/06/24 05:52:35;;;;;;;;;10.67;10.67;;;;;;;;119885;1192;24974;-63
2023/06/24 05:55:04;;;;;;;;;12.00;11.50;;;;;;;;119852;1192;24889;-64
2023/06/24 05:57:32;;;;;;;;;14.67;13.67;;;;;;;;119871;1192;25031;-63
2023/06/24 06:00:03;;;;;;;;;7.00;7.00;;;;;;;;119867;1192;24862;-65
2023/06/24 06:02:31;;;;;;;;;15.33;14.00;;;;;;;;119681;1183;25121;-64
2023/06/24 06:05:01;;;;;;;;;15.00;12.33;;;;;;;;119663;1193;25660;-64
2023/06/24 06:07:29;;;;;;;;;10.50;10.50;;;;;;;;119659;1192;25578;-64
2023/06/24 06:09:58;;;;;;;;;15.00;13.67;;;;;;;;119693;1192;26427;-65
2023/06/24 06:12:26;;;;;;;;;12.50;11.00;;;;;;;;119801;1192;24967;-64
2023/06/24 06:14:54;;;;;;;;;13.50;13.50;;;;;;;;119716;1185;25470;-65
2023/06/24 06:17:24;;;;;;;;;9.67;9.67;;;;;;;;119477;1192;25648;-65
2023/06/24 06:19:52;;;;;;;;;10.00;10.00;;;;;;;;119677;1193;25643;-65
2023/06/24 06:22:20;;;;;;;;;11.00;11.00;;;;;;;;119699;1185;25627;-64
2023/06/24 06:24:49;;;;;;;;;17.50;15.00;;;;;;;;119690;1193;25338;-64
2023/06/24 06:27:17;;;;;;;;;15.00;14.00;;;;;;;;119680;1193;25456;-64
2023/06/24 06:29:45;;;;;;;;;10.00;10.00;;;;;;;;119466;1193;25156;-64
2023/06/24 06:32:14;;;;;;;;;13.25;12.25;;;;;;;;119708;1192;24838;-63
2023/06/24 06:34:42;;;;;;;;;14.50;12.50;;;;;;;;119860;1189;25366;-63
2023/06/24 06:37:10;;;;;;;;;14.00;11.00;;;;;;;;119896;1183;25674;-64
2023/06/24 06:39:39;;;;;;;;;13.75;13.25;;;;;;;;119875;1192;24857;-63
2023/06/24 06:42:07;;;;;;;;;15.25;11.25;;;;;;;;119860;1192;24902;-64
2023/06/24 06:44:35;;;;;;;;;14.00;11.00;;;;;;;;119871;1183;25305;-63
2023/06/24 06:47:04;;;;;;;;;13.50;11.00;;;;;;;;119458;1192;25370;-63
2023/06/24 06:49:32;;;;;;;;;6.33;6.33;;;;;;;;119866;1183;25228;-63
2023/06/24 06:52:01;;;;;;;;;13.25;13.00;;;;;;;;119745;1192;24769;-63
2023/06/24 06:54:29;;;;;;;;;11.00;11.00;;;;;;;;119726;1193;25557;-63
2023/06/24 06:57:02;;;;;;;;;14.00;11.50;;;;;;;;119479;1193;25454;-63
2023/06/24 06:59:31;;;;;;;;;16.00;11.50;;;;;;;;119458;1193;25182;-63
2023/06/24 07:02:00;;;;;;;;;12.00;11.50;;;;;;;;119509;1193;24888;-63
2023/06/24 07:04:28;;;;;;;;;13.00;11.50;;;;;;;;119696;1192;25175;-63
2023/06/24 07:06:56;;;;;;;;;10.00;10.00;;;;;;;;119850;1183;25068;-63
2023/06/24 07:09:25;;;;;;;;;10.50;9.50;;;;;;;;119879;1190;25225;-64
2023/06/24 07:11:53;;;;;;;;;15.00;11.00;;;;;;;;119873;1192;25700;-64
2023/06/24 07:14:21;;;;;;;;;13.00;9.00;;;;;;;;119725;1184;25037;-63
2023/06/24 07:16:50;;;;;;;;;13.00;12.00;;;;;;;;119874;1192;25629;-63
2023/06/24 07:19:18;;;;;;;;;13.00;11.50;;;;;;;;119864;1192;24705;-63
2023/06/24 07:21:46;;;;;;;;;14.00;11.00;;;;;;;;119701;1192;25522;-63
2023/06/24 07:24:14;;;;;;;;;15.33;14.33;;;;;;;;119507;1185;25103;-63
2023/06/24 07:26:43;;;;;;;;;14.33;12.00;;;;;;;;119859;1192;25270;-63
2023/06/24 07:29:11;;;;;;;;;16.00;11.00;;;;;;;;119477;1186;25671;-64
2023/06/24 07:31:40;;;;;;;;;13.00;12.50;;;;;;;;119728;1193;25486;-63
2023/06/24 07:34:08;;;;;;;;;10.00;10.00;;;;;;;;119447;1193;24707;-64
2023/06/24 07:36:36;;;;;;;;;16.00;13.50;;;;;;;;119692;1185;25697;-63
2023/06/24 07:39:05;;;;;;;;;11.33;11.33;;;;;;;;119778;1192;25585;-64
2023/06/24 07:41:33;;;;;;;;;20.50;16.00;;;;;;;;119853;1184;25270;-63
2023/06/24 07:44:02;;;;;;;;;16.00;15.00;;;;;;;;119880;1192;25449;-65
2023/06/24 07:46:30;;;;;;;;;14.00;14.00;;;;;;;;119468;1185;25129;-64
2023/06/24 07:48:59;;;;;;;;;16.00;13.00;;;;;;;;119764;1184;25150;-64
2023/06/24 07:51:27;;;;;;;;;16.50;16.00;;;;;;;;119664;1193;25358;-64
2023/06/24 07:53:56;;;;;;;;;21.00;19.50;;;;;;;;119706;1193;25632;-66
2023/06/24 07:56:24;;;;;;;;;18.00;16.00;;;;;;;;119680;1193;25236;-65
2023/06/24 07:58:52;;;;;;;;;20.00;16.50;;;;;;;;119815;1192;25365;-64
2023/06/24 08:01:21;;;;;;;;;20.00;18.33;;;;;;;;119883;1192;25038;-66
2023/06/24 08:03:49;;;;;;;;;21.50;16.00;;;;;;;;119455;1193;25098;-68
2023/06/24 08:06:17;;;;;;;;;20.67;19.67;;;;;;;;119819;1183;25436;-63
2023/06/24 08:08:46;;;;;;;;;22.00;17.00;;;;;;;;119481;1192;25923;-62
2023/06/24 08:11:15;;;;;;;;;19.00;15.50;;;;;;;;119832;1185;25320;-65
2023/06/24 08:13:43;;;;;;;;;20.00;19.00;;;;;;;;119884;1183;25011;-63
2023/06/24 08:16:12;;;;;;;;;20.25;18.50;;;;;;;;119785;1192;24959;-62
2023/06/24 08:18:40;;;;;;;;;20.00;19.33;;;;;;;;119878;1192;24842;-62
2023/06/24 08:21:08;;;;;;;;;27.00;23.50;;;;;;;;119770;1185;25581;-62
2023/06/24 08:23:37;;;;;;;;;20.00;18.00;;;;;;;;119876;1192;24777;-63
2023/06/24 08:26:05;;;;;;;;;22.50;21.50;;;;;;;;119888;1192;24940;-64
2023/06/24 08:28:46;;;;;;;;;23.00;16.00;;;;;;;;119734;1192;25308;-64
2023/06/24 08:31:14;;;;;;;;;20.00;18.00;;;;;;;;119586;1192;25140;-62
2023/06/24 08:33:46;;;;;;;;;20.50;18.50;;;;;;;;119852;1192;25196;-62
2023/06/24 08:36:14;;;;;;;;;15.50;15.00;;;;;;;;119867;1192;24742;-62
2023/06/24 08:38:42;;;;;;;;;21.50;21.50;;;;;;;;119514;1184;25528;-62
2023/06/24 08:41:11;;;;;;;;;27.67;25.33;;;;;;;;119889;1183;25616;-62
2023/06/24 08:43:39;;;;;;;;;25.67;23.33;;;;;;;;119520;1192;25258;-61
2023/06/24 08:46:08;;;;;;;;;23.33;21.00;;;;;;;;119701;1192;24911;-65
2023/06/24 08:48:39;;;;;;;;;22.00;21.00;;;;;;;;119459;1192;25413;-61
2023/06/24 08:51:09;;;;;;;;;23.50;21.00;;;;;;;;119501;1185;24742;-63
2023/06/24 08:53:38;;;;;;;;;27.50;25.50;;;;;;;;119869;1184;25158;-63
2023/06/24 08:56:07;;;;;;;;;18.50;17.75;;;;;;;;119444;1193;25292;-64
2023/06/24 08:58:35;;;;;;;;;28.00;25.50;;;;;;;;119485;1192;24885;-67
2023/06/24 09:01:04;;;;;;;;;21.00;19.00;;;;;;;;119490;1186;25084;-68
2023/06/24 09:03:32;;;;;;;;;25.50;22.00;;;;;;;;119464;1192;25525;-69
2023/06/24 09:06:01;;;;;;;;;22.00;21.00;;;;;;;;119843;1192;25618;-68
2023/06/24 09:08:29;;;;;;;;;24.00;24.00;;;;;;;;119559;1190;25682;-69
2023/06/24 09:10:58;;;;;;;;;24.25;24.25;;;;;;;;119871;1192;25046;-68
2023/06/24 09:13:35;;;;;;;;;20.50;20.50;;;;;;;;119868;1192;25535;-68
2023/06/24 09:16:22;;;;;;;;;24.67;22.00;;;;;;;;119884;1179;25022;-68
2023/06/24 09:18:51;;;;;;;;;25.00;21.00;;;;;;;;119482;1186;25227;-68
2023/06/24 09:21:30;;;;;;;;;29.00;23.33;;;;;;;;119498;1192;25129;-69
2023/06/24 09:23:58;;;;;;;;;24.00;22.67;;;;;;;;119608;1192;24754;-69
2023/06/24 09:26:29;;;;;;;;;27.50;24.00;;;;;;;;119912;1183;25673;-72
2023/06/24 09:28:58;;;;;;;;;20.00;18.00;;;;;;;;119935;1183;25257;-69
2023/06/24 09:31:28;;;;;;;;;22.00;21.50;;;;;;;;119719;1192;25361;-65
2023/06/24 09:33:58;;;;;;;;;17.67;16.67;;;;;;;;119896;1192;24898;-66
2023/06/24 09:36:26;;;;;;;;;19.67;16.67;;;;;;;;119908;1192;25013;-66
2023/06/24 09:39:05;;;;;;;;;22.00;22.00;;;;;;;;119823;1189;25383;-66
2023/06/24 09:41:50;;;;;;;;;27.50;20.50;;;;;;;;119513;1192;25288;-67
2023/06/24 09:44:21;;;;;;;;;22.00;19.00;;;;;;;;119487;1192;26116;-66
2023/06/24 09:46:52;;;;;;;;;18.75;18.00;;;;;;;;119491;1192;24757;-66
2023/06/24 09:49:20;;;;;;;;;25.00;21.67;;;;;;;;119487;1192;26458;-66
2023/06/24 09:52:00;;;;;;;;;15.00;12.50;;;;;;;;119858;1192;25399;-69
2023/06/24 09:54:28;;;;;;;;;22.00;20.50;;;;;;;;119495;1192;25639;-67
2023/06/24 09:57:03;;;;;;;;;23.00;21.00;;;;;;;;119848;1192;25389;-67
2023/06/24 09:59:34;;;;;;;;;26.50;22.00;;;;;;;;119454;1193;25142;-66
2023/06/24 10:02:04;;;;;;;;;19.00;18.00;;;;;;;;119495;1185;25165;-67
2023/06/24 10:04:32;;;;;;;;;23.00;22.00;;;;;;;;119880;1192;25680;-67
2023/06/24 10:07:02;;;;;;;;;25.00;20.75;;;;;;;;119508;1192;24735;-68
2023/06/24 10:09:31;;;;;;;;;20.00;19.00;;;;;;;;119853;1192;25429;-68
2023/06/24 10:12:00;;;;;;;;;22.33;18.67;;;;;;;;119461;1192;25659;-68
2023/06/24 10:14:28;;;;;;;;;20.67;18.67;;;;;;;;119892;1192;25556;-67
2023/06/24 10:17:04;;;;;;;;;25.00;19.00;;;;;;;;120029;1179;24883;-67
2023/06/24 10:19:39;;;;;;;;;23.67;17.33;;;;;;;;119602;1192;25077;-68
2023/06/24 10:22:11;;;;;;;;;18.33;17.00;;;;;;;;119503;1192;25018;-69
2023/06/24 10:24:44;;;;;;;;;18.50;18.00;;;;;;;;119490;1193;25718;-69
2023/06/24 10:27:23;;;;;;;;;18.00;17.00;;;;;;;;119492;1190;25231;-66
2023/06/24 10:29:53;;;;;;;;;22.00;18.33;;;;;;;;119848;1192;24723;-67
2023/06/24 10:32:22;;;;;;;;;20.00;17.67;;;;;;;;119866;1183;25058;-68
2023/06/24 10:34:56;;;;;;;;;24.00;20.50;;;;;;;;119488;1192;24989;-68
2023/06/24 10:37:26;;;;;;;;;14.00;11.00;;;;;;;;119489;1192;25863;-66
2023/06/24 10:39:58;;;;;;;;;20.00;20.00;;;;;;;;119857;1192;25332;-66
2023/06/24 10:42:36;;;;;;;;;17.00;15.00;;;;;;;;119883;1192;24742;-65
2023/06/24 10:45:13;;;;;;;;;28.25;22.00;;;;;;;;119869;1192;25510;-66
2023/06/24 10:48:00;;;;;;;;;19.00;19.00;;;;;;;;119894;1183;24792;-66
2023/06/24 10:50:29;;;;;;;;;21.50;19.00;;;;;;;;119897;1192;25437;-67
2023/06/24 10:53:00;;;;;;;;;23.75;23.75;;;;;;;;119852;1183;25497;-68
2023/06/24 10:55:28;;;;;;;;;21.33;20.00;;;;;;;;119513;1185;25211;-68
2023/06/24 10:58:11;;;;;;;;;24.00;21.67;;;;;;;;119481;1192;25322;-67
2023/06/24 11:00:40;;;;;;;;;24.00;20.33;;;;;;;;119856;1192;24909;-67
2023/06/24 11:03:14;;;;;;;;;27.33;23.33;;;;;;;;119506;1185;25478;-67
2023/06/24 11:05:44;;;;;;;;;21.00;17.67;;;;;;;;119715;1192;24884;-69
2023/06/24 11:08:13;;;;;;;;;25.00;21.00;;;;;;;;119888;1183;25193;-69
2023/06/24 11:10:45;;;;;;;;;24.50;22.50;;;;;;;;119899;1192;25115;-68
2023/06/24 11:13:14;;;;;;;;;25.50;23.00;;;;;;;;119885;1192;25081;-67
2023/06/24 11:15:42;;;;;;;;;25.00;23.50;;;;;;;;119858;1188;24821;-68
2023/06/24 11:18:11;;;;;;;;;18.75;16.75;;;;;;;;119673;1192;25671;-68
2023/06/24 11:20:40;;;;;;;;;21.33;19.33;;;;;;;;119530;1185;24866;-69
2023/06/24 11:23:10;;;;;;;;;23.00;20.00;;;;;;;;119509;1190;24962;-69
2023/06/24 11:25:43;;;;;;;;;19.33;19.00;;;;;;;;119900;1189;25592;-60
2023/06/24 11:28:18;;;;;;;;;19.67;19.00;;;;;;;;119595;1192;25474;-60
2023/06/24 11:30:50;;;;;;;;;19.50;18.00;;;;;;;;119797;1192;24857;-60
2023/06/24 11:33:28;;;;;;;;;22.67;20.33;;;;;;;;119797;1192;25340;-60
2023/06/24 11:35:56;;;;;;;;;24.33;23.00;;;;;;;;119483;1190;25452;-60
2023/06/24 11:38:31;;;;;;;;;27.33;24.00;;;;;;;;119490;1192;25503;-60
2023/06/24 11:41:00;;;;;;;;;28.50;25.00;;;;;;;;119873;1189;25240;-60
2023/06/24 11:43:29;;;;;;;;;37.75;30.75;;;;;;;;119531;1184;25634;-60
2023/06/24 11:45:57;;;;;;;;;25.00;24.25;;;;;;;;119472;1192;25624;-60
2023/06/24 11:48:29;;;;;;;;;25.00;23.00;;;;;;;;119872;1184;25441;-60
2023/06/24 11:50:57;;;;;;;;;22.00;22.00;;;;;;;;119901;1192;25697;-61
2023/06/24 11:53:31;;;;;;;;;28.67;24.67;;;;;;;;119679;1193;25627;-60
2023/06/24 11:55:59;;;;;;;;;24.67;23.67;;;;;;;;119483;1192;25139;-60
2023/06/24 11:58:28;;;;;;;;;34.00;26.00;;;;;;;;119817;1192;25065;-61
2023/06/24 12:00:57;;;;;;;;;23.67;22.67;;;;;;;;119671;1193;25114;-60
2023/06/24 12:03:25;;;;;;;;;23.33;19.67;;;;;;;;119687;1193;24805;-61
2023/06/24 12:05:54;;;;;;;;;32.33;29.33;;;;;;;;119419;1187;25632;-59
2023/06/24 12:08:22;;;;;;;;;23.50;22.00;;;;;;;;119687;1192;24895;-59
2023/06/24 12:10:51;;;;;;;;;22.67;22.33;;;;;;;;119802;1190;25172;-60
2023/06/24 12:13:20;;;;;;;;;29.00;23.00;;;;;;;;119874;1188;24740;-59
2023/06/24 12:15:48;;;;;;;;;23.25;22.75;;;;;;;;119873;1191;24872;-60
2023/06/24 12:18:16;;;;;;;;;25.33;23.67;;;;;;;;119882;1192;25314;-60
2023/06/24 12:20:45;;;;;;;;;21.75;21.00;;;;;;;;119869;1192;25048;-60
2023/06/24 12:23:13;;;;;;;;;24.00;22.00;;;;;;;;119857;1192;25445;-60
2023/06/24 12:25:42;;;;;;;;;24.00;22.50;;;;;;;;119793;1189;25683;-60
2023/06/24 12:28:10;;;;;;;;;26.00;25.33;;;;;;;;119722;1191;25428;-60
2023/06/24 12:30:38;;;;;;;;;25.50;24.00;;;;;;;;119890;1192;24865;-59
2023/06/24 12:33:08;;;;;;;;;23.00;23.00;;;;;;;;119921;1192;24751;-60
2023/06/24 12:35:37;;;;;;;;;23.33;21.33;;;;;;;;119876;1192;25160;-59
2023/06/24 12:38:05;;;;;;;;;34.50;31.00;;;;;;;;119895;1192;25647;-60
2023/06/24 12:40:33;;;;;;;;;37.00;31.00;;;;;;;;119877;1191;26459;-60
2023/06/24 12:43:04;;;;;;;;;29.33;28.00;;;;;;;;119708;1192;25304;-61
2023/06/24 12:45:32;;;;;;;;;29.50;27.75;;;;;;;;120002;1183;25488;-60
2023/06/24 12:48:01;;;;;;;;;36.67;29.67;;;;;;;;119876;1192;24850;-59
2023/06/24 12:50:31;;;;;;;;;31.00;29.33;;;;;;;;119851;1192;25443;-61
2023/06/24 12:53:00;;;;;;;;;23.00;21.33;;;;;;;;119848;1192;25578;-60
2023/06/24 12:55:29;;;;;;;;;28.00;28.00;;;;;;;;119674;1193;24783;-60
2023/06/24 12:57:57;;;;;;;;;33.00;32.00;;;;;;;;119547;1192;24957;-61
2023/06/24 13:00:26;;;;;;;;;30.00;28.00;;;;;;;;119865;1192;24716;-61
2023/06/24 13:02:54;;;;;;;;;31.50;28.50;;;;;;;;119883;1183;25309;-60
2023/06/24 13:05:23;;;;;;;;;31.75;29.75;;;;;;;;119878;1192;25645;-59
2023/06/24 13:07:52;;;;;;;;;29.50;24.25;;;;;;;;119860;1192;25131;-61
2023/06/24 13:10:20;;;;;;;;;29.50;24.50;;;;;;;;119861;1179;24789;-60
2023/06/24 13:12:49;;;;;;;;;31.67;29.33;;;;;;;;119788;1192;25063;-60
2023/06/24 13:15:19;;;;;;;;;34.00;30.00;;;;;;;;119839;1183;24694;-60
2023/06/24 13:17:47;;;;;;;;;32.50;29.25;;;;;;;;119878;1192;25024;-60
2023/06/24 13:20:16;;;;;;;;;36.67;32.00;;;;;;;;119470;1192;25892;-60
2023/06/24 13:22:44;;;;;;;;;31.50;30.00;;;;;;;;119704;1185;25698;-59
2023/06/24 13:25:12;;;;;;;;;34.33;31.00;;;;;;;;119881;1192;25580;-59
2023/06/24 13:27:44;;;;;;;;;46.00;37.00;;;;;;;;119891;1192;24936;-59
2023/06/24 13:30:15;;;;;;;;;42.75;36.25;;;;;;;;119703;1192;25163;-60
2023/06/24 13:32:43;;;;;;;;;45.00;37.67;;;;;;;;119740;1185;25555;-59
2023/06/24 13:35:12;;;;;;;;;48.00;39.00;;;;;;;;119747;1192;24775;-60
2023/06/24 13:37:40;;;;;;;;;48.00;36.50;;;;;;;;119825;1192;25148;-61
2023/06/24 13:40:10;;;;;;;;;42.33;36.67;;;;;;;;119806;1192;24841;-60
2023/06/24 13:42:38;;;;;;;;;45.00;36.50;;;;;;;;119494;1185;24833;-61
2023/06/24 13:45:07;;;;;;;;;50.00;39.00;;;;;;;;119509;1192;25044;-60
2023/06/24 13:47:35;;;;;;;;;47.00;39.00;;;;;;;;119859;1192;26333;-66
2023/06/24 13:50:04;;;;;;;;;48.33;38.67;;;;;;;;119481;1192;24816;-68
2023/06/24 13:52:33;;;;;;;;;46.00;38.25;;;;;;;;119495;1186;24968;-70
2023/06/24 13:55:01;;;;;;;;;38.00;32.50;;;;;;;;119782;1180;25317;-66
2023/06/24 13:57:29;;;;;;;;;43.25;35.75;;;;;;;;119860;1192;25682;-66
2023/06/24 13:59:58;;;;;;;;;34.33;33.33;;;;;;;;119497;1186;25144;-67
2023/06/24 14:02:26;;;;;;;;;39.00;35.33;;;;;;;;119861;1183;25504;-67
2023/06/24 14:04:54;;;;;;;;;40.67;34.00;;;;;;;;119883;1183;25633;-65
2023/06/24 14:07:23;;;;;;;;;36.00;32.67;;;;;;;;119480;1192;25231;-66
2023/06/24 14:09:52;;;;;;;;;33.00;29.25;;;;;;;;119867;1192;25695;-65
2023/06/24 14:12:20;;;;;;;;;40.00;34.67;;;;;;;;119724;1192;25400;-67
2023/06/24 14:14:49;;;;;;;;;36.00;32.00;;;;;;;;119496;1192;25620;-67
2023/06/24 14:17:17;;;;;;;;;31.00;30.00;;;;;;;;119499;1186;25494;-66
2023/06/24 14:19:46;;;;;;;;;38.00;31.25;;;;;;;;119857;1189;25357;-68
2023/06/24 14:22:14;;;;;;;;;37.25;32.50;;;;;;;;119845;1184;25590;-65